sensor_id;sensor_type;location;lat;lon;timestamp;temperature;humidity
27200;DHT22;14714;48.106;11.546;2024-01-06T00:02:15;6.40;99.90
27200;DHT22;14714;48.106;11.546;2024-01-06T00:04:42;6.30;99.90
27200;DHT22;14714;48.106;11.546;2024-01-06T00:07:09;6.30;99.90
27200;DHT22;14714;48.106;11.546;2024-01-06T00:09:36;6.30;99.90
27200;DHT22;14714;48.106;11.546;2024-01-06T00:12:04;6.30;99.90
27200;DHT22;14714;48.106;11.546;2024-01-06T00:14:31;6.30;99.90
27200;DHT22;14714;48.106;11.546;2024-01-06T00:16:58;6.30;99.90
27200;DHT22;14714;48.106;11.546;2024-01-06T00:19:24;6.30;99.90
27200;DHT22;14714;48.106;11.546;2024-01-06T00:21:51;6.30;99.90
27200;DHT22;14714;48.106;11.546;2024-01-06T00:24:18;6.30;99.90
27200;DHT22;14714;48.106;11.546;2024-01-06T00:26:45;6.30;99.90
27200;DHT22;14714;48.106;11.546;2024-01-06T00:29:12;6.30;99.90
27200;DHT22;14714;48.106;11.546;2024-01-06T00:31:39;6.40;99.90
27200;DHT22;14714;48.106;11.546;2024-01-06T00:34:06;6.40;99.90
27200;DHT22;14714;48.106;11.546;2024-01-06T00:36:33;6.40;99.90
27200;DHT22;14714;48.106;11.546;2024-01-06T00:39:00;6.30;99.90
27200;DHT22;14714;48.106;11.546;2024-01-06T00:41:27;6.30;99.90
27200;DHT22;14714;48.106;11.546;2024-01-06T00:43:54;6.30;99.90
27200;DHT22;14714;48.106;11.546;2024-01-06T00:46:20;6.30;99.90
27200;DHT22;14714;48.106;11.546;2024-01-06T00:48:47;6.20;99.90
27200;DHT22;14714;48.106;11.546;2024-01-06T00:51:14;6.20;99.90
27200;DHT22;14714;48.106;11.546;2024-01-06T00:53:41;6.20;99.90
27200;DHT22;14714;48.106;11.546;2024-01-06T00:56:08;6.20;99.90
27200;DHT22;14714;48.106;11.546;2024-01-06T00:58:35;6.20;99.90
27200;DHT22;14714;48.106;11.546;2024-01-06T01:01:02;6.10;99.90
27200;DHT22;14714;48.106;11.546;2024-01-06T01:03:30;6.10;99.90
27200;DHT22;14714;48.106;11.546;2024-01-06T01:05:57;6.10;99.90
27200;DHT22;14714;48.106;11.546;2024-01-06T01:08:24;6.00;99.90
27200;DHT22;14714;48.106;11.546;2024-01-06T01:10:51;5.90;99.90
27200;DHT22;14714;48.106;11.546;2024-01-06T01:13:18;5.90;99.90
27200;DHT22;14714;48.106;11.546;2024-01-06T01:15:45;5.90;99.90
27200;DHT22;14714;48.106;11.546;2024-01-06T01:18:12;5.80;99.90
27200;DHT22;14714;48.106;11.546;2024-01-06T01:20:39;5.80;99.90
27200;DHT22;14714;48.106;11.546;2024-01-06T01:23:08;5.80;99.90
27200;DHT22;14714;48.106;11.546;2024-01-06T01:25:35;5.80;99.90
27200;DHT22;14714;48.106;11.546;2024-01-06T01:28:02;5.80;99.90
27200;DHT22;14714;48.106;11.546;2024-01-06T01:30:29;5.80;99.90
27200;DHT22;14714;48.106;11.546;2024-01-06T01:32:56;5.80;99.90
27200;DHT22;14714;48.106;11.546;2024-01-06T01:35:23;5.80;99.90
27200;DHT22;14714;48.106;11.546;2024-01-06T01:37:50;5.80;99.90
27200;DHT22;14714;48.106;11.546;2024-01-06T01:40:17;5.80;99.90
27200;DHT22;14714;48.106;11.546;2024-01-06T01:42:44;5.80;99.90
27200;DHT22;14714;48.106;11.546;2024-01-06T01:45:11;5.80;99.90
27200;DHT22;14714;48.106;11.546;2024-01-06T01:47:39;5.80;99.90
27200;DHT22;14714;48.106;11.546;2024-01-06T01:50:07;5.80;99.90
27200;DHT22;14714;48.106;11.546;2024-01-06T01:52:35;5.80;99.90
27200;DHT22;14714;48.106;11.546;2024-01-06T01:55:03;5.80;99.90
27200;DHT22;14714;48.106;11.546;2024-01-06T01:57:31;5.80;99.90
27200;DHT22;14714;48.106;11.546;2024-01-06T01:59:58;5.80;99.90
27200;DHT22;14714;48.106;11.546;2024-01-06T02:02:26;5.80;99.90
27200;DHT22;14714;48.106;11.546;2024-01-06T02:04:55;5.80;99.90
27200;DHT22;14714;48.106;11.546;2024-01-06T02:07:23;5.80;99.90
27200;DHT22;14714;48.106;11.546;2024-01-06T02:09:50;5.80;99.90
27200;DHT22;14714;48.106;11.546;2024-01-06T02:12:17;5.80;99.90
27200;DHT22;14714;48.106;11.546;2024-01-06T02:14:44;5.80;99.90
27200;DHT22;14714;48.106;11.546;2024-01-06T02:17:10;5.80;99.90
27200;DHT22;14714;48.106;11.546;2024-01-06T02:19:37;5.80;99.90
27200;DHT22;14714;48.106;11.546;2024-01-06T02:22:05;5.80;99.90
27200;DHT22;14714;48.106;11.546;2024-01-06T02:24:31;5.80;99.90
27200;DHT22;14714;48.106;11.546;2024-01-06T02:26:58;5.80;99.90
27200;DHT22;14714;48.106;11.546;2024-01-06T02:29:25;5.80;99.90
27200;DHT22;14714;48.106;11.546;2024-01-06T02:31:52;5.80;99.90
27200;DHT22;14714;48.106;11.546;2024-01-06T02:34:19;5.80;99.90
27200;DHT22;14714;48.106;11.546;2024-01-06T02:36:46;5.80;99.90
27200;DHT22;14714;48.106;11.546;2024-01-06T02:39:13;5.70;99.90
27200;DHT22;14714;48.106;11.546;2024-01-06T02:41:40;5.70;99.90
27200;DHT22;14714;48.106;11.546;2024-01-06T02:44:06;5.70;99.90
27200;DHT22;14714;48.106;11.546;2024-01-06T02:46:39;5.70;99.90
27200;DHT22;14714;48.106;11.546;2024-01-06T02:49:07;5.70;99.90
27200;DHT22;14714;48.106;11.546;2024-01-06T02:51:34;5.70;99.90
27200;DHT22;14714;48.106;11.546;2024-01-06T02:54:01;5.70;99.90
27200;DHT22;14714;48.106;11.546;2024-01-06T02:56:28;5.70;99.90
27200;DHT22;14714;48.106;11.546;2024-01-06T02:58:55;5.70;99.90
27200;DHT22;14714;48.106;11.546;2024-01-06T03:01:22;5.60;99.90
27200;DHT22;14714;48.106;11.546;2024-01-06T03:03:49;5.60;99.90
27200;DHT22;14714;48.106;11.546;2024-01-06T03:06:16;5.60;99.90
27200;DHT22;14714;48.106;11.546;2024-01-06T03:08:43;5.60;99.90
27200;DHT22;14714;48.106;11.546;2024-01-06T03:11:10;5.60;99.90
27200;DHT22;14714;48.106;11.546;2024-01-06T03:13:37;5.60;99.90
27200;DHT22;14714;48.106;11.546;2024-01-06T03:16:04;5.60;99.90
27200;DHT22;14714;48.106;11.546;2024-01-06T03:18:34;5.60;99.90
27200;DHT22;14714;48.106;11.546;2024-01-06T03:21:01;5.60;99.90
27200;DHT22;14714;48.106;11.546;2024-01-06T03:23:28;5.60;99.90
27200;DHT22;14714;48.106;11.546;2024-01-06T03:25:55;5.60;99.90
27200;DHT22;14714;48.106;11.546;2024-01-06T03:28:22;5.60;99.90
27200;DHT22;14714;48.106;11.546;2024-01-06T03:30:49;5.60;99.90
27200;DHT22;14714;48.106;11.546;2024-01-06T03:33:16;5.60;99.90
27200;DHT22;14714;48.106;11.546;2024-01-06T03:35:43;5.60;99.90
27200;DHT22;14714;48.106;11.546;2024-01-06T03:38:09;5.60;99.90
27200;DHT22;14714;48.106;11.546;2024-01-06T03:40:36;5.50;99.90
27200;DHT22;14714;48.106;11.546;2024-01-06T03:43:03;5.50;99.90
27200;DHT22;14714;48.106;11.546;2024-01-06T03:45:30;5.50;99.90
27200;DHT22;14714;48.106;11.546;2024-01-06T03:47:57;5.50;99.90
27200;DHT22;14714;48.106;11.546;2024-01-06T03:50:24;5.50;99.90
27200;DHT22;14714;48.106;11.546;2024-01-06T03:52:51;5.50;99.90
27200;DHT22;14714;48.106;11.546;2024-01-06T03:55:18;5.50;99.90
27200;DHT22;14714;48.106;11.546;2024-01-06T03:57:45;5.50;99.90
27200;DHT22;14714;48.106;11.546;2024-01-06T04:00:12;5.50;99.90
27200;DHT22;14714;48.106;11.546;2024-01-06T04:02:38;5.50;99.90
27200;DHT22;14714;48.106;11.546;2024-01-06T04:05:05;5.40;99.90
27200;DHT22;14714;48.106;11.546;2024-01-06T04:07:32;5.40;99.90
27200;DHT22;14714;48.106;11.546;2024-01-06T04:09:59;5.40;99.90
27200;DHT22;14714;48.106;11.546;2024-01-06T04:12:26;5.30;99.90
27200;DHT22;14714;48.106;11.546;2024-01-06T04:14:53;5.40;99.90
27200;DHT22;14714;48.106;11.546;2024-01-06T04:17:20;5.30;99.90
27200;DHT22;14714;48.106;11.546;2024-01-06T04:19:47;5.30;99.90
27200;DHT22;14714;48.106;11.546;2024-01-06T04:22:14;5.30;99.90
27200;DHT22;14714;48.106;11.546;2024-01-06T04:24:41;5.20;99.90
27200;DHT22;14714;48.106;11.546;2024-01-06T04:27:08;5.20;99.90
27200;DHT22;14714;48.106;11.546;2024-01-06T04:29:36;5.20;99.90
27200;DHT22;14714;48.106;11.546;2024-01-06T04:32:03;5.20;99.90
27200;DHT22;14714;48.106;11.546;2024-01-06T04:34:30;5.20;99.90
27200;DHT22;14714;48.106;11.546;2024-01-06T04:36:57;5.20;99.90
27200;DHT22;14714;48.106;11.546;2024-01-06T04:39:24;5.20;99.90
27200;DHT22;14714;48.106;11.546;2024-01-06T04:41:51;5.10;99.90
27200;DHT22;14714;48.106;11.546;2024-01-06T04:44:20;5.10;99.90
27200;DHT22;14714;48.106;11.546;2024-01-06T04:46:47;5.10;99.90
27200;DHT22;14714;48.106;11.546;2024-01-06T04:49:14;5.10;99.90
27200;DHT22;14714;48.106;11.546;2024-01-06T04:51:41;5.10;99.90
27200;DHT22;14714;48.106;11.546;2024-01-06T04:54:08;5.10;99.90
27200;DHT22;14714;48.106;11.546;2024-01-06T04:56:35;5.10;99.90
27200;DHT22;14714;48.106;11.546;2024-01-06T04:59:02;5.10;99.90
27200;DHT22;14714;48.106;11.546;2024-01-06T05:01:29;5.10;99.90
27200;DHT22;14714;48.106;11.546;2024-01-06T05:03:56;5.00;99.90
27200;DHT22;14714;48.106;11.546;2024-01-06T05:06:23;5.00;99.90
27200;DHT22;14714;48.106;11.546;2024-01-06T05:08:50;5.10;99.90
27200;DHT22;14714;48.106;11.546;2024-01-06T05:11:17;5.00;99.90
27200;DHT22;14714;48.106;11.546;2024-01-06T05:13:44;5.10;99.90
27200;DHT22;14714;48.106;11.546;2024-01-06T05:16:11;5.10;99.90
27200;DHT22;14714;48.106;11.546;2024-01-06T05:18:38;5.00;99.90
27200;DHT22;14714;48.106;11.546;2024-01-06T05:21:05;4.90;99.90
27200;DHT22;14714;48.106;11.546;2024-01-06T05:23:32;4.90;99.90
27200;DHT22;14714;48.106;11.546;2024-01-06T05:25:59;4.90;99.90
27200;DHT22;14714;48.106;11.546;2024-01-06T05:28:26;4.80;99.90
27200;DHT22;14714;48.106;11.546;2024-01-06T05:30:53;4.80;99.90
27200;DHT22;14714;48.106;11.546;2024-01-06T05:33:20;4.80;99.90
27200;DHT22;14714;48.106;11.546;2024-01-06T05:35:47;4.80;99.90
27200;DHT22;14714;48.106;11.546;2024-01-06T05:38:14;4.80;99.90
27200;DHT22;14714;48.106;11.546;2024-01-06T05:40:41;4.70;99.90
27200;DHT22;14714;48.106;11.546;2024-01-06T05:43:08;4.70;99.90
27200;DHT22;14714;48.106;11.546;2024-01-06T05:45:34;4.70;99.90
27200;DHT22;14714;48.106;11.546;2024-01-06T05:48:01;4.70;99.90
27200;DHT22;14714;48.106;11.546;2024-01-06T05:50:28;4.70;99.90
27200;DHT22;14714;48.106;11.546;2024-01-06T05:52:55;4.70;99.90
27200;DHT22;14714;48.106;11.546;2024-01-06T05:55:23;4.60;99.90
27200;DHT22;14714;48.106;11.546;2024-01-06T05:57:49;4.60;99.90
27200;DHT22;14714;48.106;11.546;2024-01-06T06:00:17;4.60;99.90
27200;DHT22;14714;48.106;11.546;2024-01-06T06:02:44;4.60;99.90
27200;DHT22;14714;48.106;11.546;2024-01-06T06:05:11;4.60;99.90
27200;DHT22;14714;48.106;11.546;2024-01-06T06:07:37;4.50;99.90
27200;DHT22;14714;48.106;11.546;2024-01-06T06:10:10;4.50;99.90
27200;DHT22;14714;48.106;11.546;2024-01-06T06:12:38;4.50;99.90
27200;DHT22;14714;48.106;11.546;2024-01-06T06:15:06;4.50;99.90
27200;DHT22;14714;48.106;11.546;2024-01-06T06:17:35;4.50;99.90
27200;DHT22;14714;48.106;11.546;2024-01-06T06:20:02;4.50;99.90
27200;DHT22;14714;48.106;11.546;2024-01-06T06:22:29;4.40;99.90
27200;DHT22;14714;48.106;11.546;2024-01-06T06:24:59;4.40;99.90
27200;DHT22;14714;48.106;11.546;2024-01-06T06:27:27;4.40;99.90
27200;DHT22;14714;48.106;11.546;2024-01-06T06:29:55;4.40;99.90
27200;DHT22;14714;48.106;11.546;2024-01-06T06:32:23;4.40;99.90
27200;DHT22;14714;48.106;11.546;2024-01-06T06:34:50;4.40;99.90
27200;DHT22;14714;48.106;11.546;2024-01-06T06:37:16;4.40;99.90
27200;DHT22;14714;48.106;11.546;2024-01-06T06:39:43;4.40;99.90
27200;DHT22;14714;48.106;11.546;2024-01-06T06:42:11;4.40;99.90
27200;DHT22;14714;48.106;11.546;2024-01-06T06:44:39;4.40;99.90
27200;DHT22;14714;48.106;11.546;2024-01-06T06:47:06;4.40;99.90
27200;DHT22;14714;48.106;11.546;2024-01-06T06:49:32;4.40;99.90
27200;DHT22;14714;48.106;11.546;2024-01-06T06:51:59;4.40;99.90
27200;DHT22;14714;48.106;11.546;2024-01-06T06:54:26;4.40;99.90
27200;DHT22;14714;48.106;11.546;2024-01-06T06:56:53;4.40;99.90
27200;DHT22;14714;48.106;11.546;2024-01-06T06:59:20;4.30;99.90
27200;DHT22;14714;48.106;11.546;2024-01-06T07:01:47;4.30;99.90
27200;DHT22;14714;48.106;11.546;2024-01-06T07:04:14;4.30;99.90
27200;DHT22;14714;48.106;11.546;2024-01-06T07:06:41;4.20;99.90
27200;DHT22;14714;48.106;11.546;2024-01-06T07:09:08;4.20;99.90
27200;DHT22;14714;48.106;11.546;2024-01-06T07:11:35;4.20;99.90
27200;DHT22;14714;48.106;11.546;2024-01-06T07:14:02;4.20;99.90
27200;DHT22;14714;48.106;11.546;2024-01-06T07:16:29;4.20;99.90
27200;DHT22;14714;48.106;11.546;2024-01-06T07:18:56;4.20;99.90
27200;DHT22;14714;48.106;11.546;2024-01-06T07:21:23;4.20;99.90
27200;DHT22;14714;48.106;11.546;2024-01-06T07:23:50;4.20;99.90
27200;DHT22;14714;48.106;11.546;2024-01-06T07:26:17;4.20;99.90
27200;DHT22;14714;48.106;11.546;2024-01-06T07:28:44;4.20;99.90
27200;DHT22;14714;48.106;11.546;2024-01-06T07:31:11;4.30;99.90
27200;DHT22;14714;48.106;11.546;2024-01-06T07:33:38;4.30;99.90
27200;DHT22;14714;48.106;11.546;2024-01-06T07:36:06;4.30;99.90
27200;DHT22;14714;48.106;11.546;2024-01-06T07:38:33;4.30;99.90
27200;DHT22;14714;48.106;11.546;2024-01-06T07:41:00;4.30;99.90
27200;DHT22;14714;48.106;11.546;2024-01-06T07:43:27;4.30;99.90
27200;DHT22;14714;48.106;11.546;2024-01-06T07:45:54;4.30;99.90
27200;DHT22;14714;48.106;11.546;2024-01-06T07:48:21;4.30;99.90
27200;DHT22;14714;48.106;11.546;2024-01-06T07:50:49;4.30;99.90
27200;DHT22;14714;48.106;11.546;2024-01-06T07:53:16;4.30;99.90
27200;DHT22;14714;48.106;11.546;2024-01-06T07:55:43;4.30;99.90
27200;DHT22;14714;48.106;11.546;2024-01-06T07:58:10;4.30;99.90
27200;DHT22;14714;48.106;11.546;2024-01-06T08:00:38;4.30;99.90
27200;DHT22;14714;48.106;11.546;2024-01-06T08:03:05;4.30;99.90
27200;DHT22;14714;48.106;11.546;2024-01-06T08:05:33;4.30;99.90
27200;DHT22;14714;48.106;11.546;2024-01-06T08:08:00;4.30;99.90
27200;DHT22;14714;48.106;11.546;2024-01-06T08:10:26;4.30;99.90
27200;DHT22;14714;48.106;11.546;2024-01-06T08:12:53;4.30;99.90
27200;DHT22;14714;48.106;11.546;2024-01-06T08:15:21;4.30;99.90
27200;DHT22;14714;48.106;11.546;2024-01-06T08:17:48;4.30;99.90
27200;DHT22;14714;48.106;11.546;2024-01-06T08:20:15;4.30;99.90
27200;DHT22;14714;48.106;11.546;2024-01-06T08:22:42;4.30;99.90
27200;DHT22;14714;48.106;11.546;2024-01-06T08:25:09;4.30;99.90
27200;DHT22;14714;48.106;11.546;2024-01-06T08:27:36;4.40;99.90
27200;DHT22;14714;48.106;11.546;2024-01-06T08:30:03;4.30;99.90
27200;DHT22;14714;48.106;11.546;2024-01-06T08:32:30;4.30;99.90
27200;DHT22;14714;48.106;11.546;2024-01-06T08:34:57;4.30;99.90
27200;DHT22;14714;48.106;11.546;2024-01-06T08:37:24;4.30;99.90
27200;DHT22;14714;48.106;11.546;2024-01-06T08:39:51;4.30;99.90
27200;DHT22;14714;48.106;11.546;2024-01-06T08:42:18;4.30;99.90
27200;DHT22;14714;48.106;11.546;2024-01-06T08:44:45;4.30;99.90
27200;DHT22;14714;48.106;11.546;2024-01-06T08:47:12;4.30;99.90
27200;DHT22;14714;48.106;11.546;2024-01-06T08:49:39;4.40;99.90
27200;DHT22;14714;48.106;11.546;2024-01-06T08:52:06;4.40;99.90
27200;DHT22;14714;48.106;11.546;2024-01-06T08:54:33;4.40;99.90
27200;DHT22;14714;48.106;11.546;2024-01-06T08:57:00;4.40;99.90
27200;DHT22;14714;48.106;11.546;2024-01-06T08:59:27;4.40;99.90
27200;DHT22;14714;48.106;11.546;2024-01-06T09:01:54;4.40;99.90
27200;DHT22;14714;48.106;11.546;2024-01-06T09:04:21;4.50;99.90
27200;DHT22;14714;48.106;11.546;2024-01-06T09:06:48;4.50;99.90
27200;DHT22;14714;48.106;11.546;2024-01-06T09:09:15;4.50;99.90
27200;DHT22;14714;48.106;11.546;2024-01-06T09:11:42;4.40;99.90
27200;DHT22;14714;48.106;11.546;2024-01-06T09:14:10;4.40;99.90
27200;DHT22;14714;48.106;11.546;2024-01-06T09:16:37;4.40;99.90
27200;DHT22;14714;48.106;11.546;2024-01-06T09:19:04;4.40;99.90
27200;DHT22;14714;48.106;11.546;2024-01-06T09:21:31;4.50;99.90
27200;DHT22;14714;48.106;11.546;2024-01-06T09:23:58;4.40;99.90
27200;DHT22;14714;48.106;11.546;2024-01-06T09:26:27;4.40;99.90
27200;DHT22;14714;48.106;11.546;2024-01-06T09:28:53;4.50;99.90
27200;DHT22;14714;48.106;11.546;2024-01-06T09:31:20;4.50;99.90
27200;DHT22;14714;48.106;11.546;2024-01-06T09:33:47;4.50;99.90
27200;DHT22;14714;48.106;11.546;2024-01-06T09:36:16;4.50;99.90
27200;DHT22;14714;48.106;11.546;2024-01-06T09:38:43;4.50;99.90
27200;DHT22;14714;48.106;11.546;2024-01-06T09:41:10;4.40;99.90
27200;DHT22;14714;48.106;11.546;2024-01-06T09:43:37;4.40;99.90
27200;DHT22;14714;48.106;11.546;2024-01-06T09:46:14;4.50;99.90
27200;DHT22;14714;48.106;11.546;2024-01-06T09:48:43;4.50;99.90
27200;DHT22;14714;48.106;11.546;2024-01-06T09:51:12;4.60;99.90
27200;DHT22;14714;48.106;11.546;2024-01-06T09:53:47;4.60;99.90
27200;DHT22;14714;48.106;11.546;2024-01-06T09:56:15;4.60;99.90
27200;DHT22;14714;48.106;11.546;2024-01-06T09:58:44;4.60;99.90
27200;DHT22;14714;48.106;11.546;2024-01-06T10:01:11;4.60;99.90
27200;DHT22;14714;48.106;11.546;2024-01-06T10:03:38;4.60;99.90
27200;DHT22;14714;48.106;11.546;2024-01-06T10:06:05;4.70;99.90
27200;DHT22;14714;48.106;11.546;2024-01-06T10:08:33;4.60;99.90
27200;DHT22;14714;48.106;11.546;2024-01-06T10:11:00;4.60;99.90
27200;DHT22;14714;48.106;11.546;2024-01-06T10:13:28;4.60;99.90
27200;DHT22;14714;48.106;11.546;2024-01-06T10:15:55;4.60;99.90
27200;DHT22;14714;48.106;11.546;2024-01-06T10:18:22;4.60;99.90
27200;DHT22;14714;48.106;11.546;2024-01-06T10:20:52;4.60;99.90
27200;DHT22;14714;48.106;11.546;2024-01-06T10:23:22;4.60;99.90
27200;DHT22;14714;48.106;11.546;2024-01-06T10:25:53;4.70;99.90
27200;DHT22;14714;48.106;11.546;2024-01-06T10:28:24;4.70;99.90
27200;DHT22;14714;48.106;11.546;2024-01-06T10:30:52;4.70;99.90
27200;DHT22;14714;48.106;11.546;2024-01-06T10:33:21;4.70;99.90
27200;DHT22;14714;48.106;11.546;2024-01-06T10:35:49;4.70;99.90
27200;DHT22;14714;48.106;11.546;2024-01-06T10:38:17;4.60;99.90
27200;DHT22;14714;48.106;11.546;2024-01-06T10:43:27;4.60;99.90
27200;DHT22;14714;48.106;11.546;2024-01-06T10:45:56;4.60;99.90
27200;DHT22;14714;48.106;11.546;2024-01-06T10:48:25;4.60;99.90
27200;DHT22;14714;48.106;11.546;2024-01-06T10:50:55;4.60;99.90
27200;DHT22;14714;48.106;11.546;2024-01-06T10:53:22;4.60;99.90
27200;DHT22;14714;48.106;11.546;2024-01-06T10:55:50;4.70;99.90
27200;DHT22;14714;48.106;11.546;2024-01-06T10:58:22;4.70;99.90
27200;DHT22;14714;48.106;11.546;2024-01-06T11:00:49;4.70;99.90
27200;DHT22;14714;48.106;11.546;2024-01-06T11:03:17;4.80;99.90
27200;DHT22;14714;48.106;11.546;2024-01-06T11:05:45;4.80;99.90
27200;DHT22;14714;48.106;11.546;2024-01-06T11:08:12;4.80;99.90
27200;DHT22;14714;48.106;11.546;2024-01-06T11:10:40;4.80;99.90
27200;DHT22;14714;48.106;11.546;2024-01-06T11:13:14;4.80;99.90
27200;DHT22;14714;48.106;11.546;2024-01-06T11:15:48;4.90;99.90
27200;DHT22;14714;48.106;11.546;2024-01-06T11:18:39;4.90;99.90
27200;DHT22;14714;48.106;11.546;2024-01-06T11:23:40;5.00;99.90
27200;DHT22;14714;48.106;11.546;2024-01-06T11:26:07;5.00;99.90
27200;DHT22;14714;48.106;11.546;2024-01-06T11:28:45;5.00;99.90
27200;DHT22;14714;48.106;11.546;2024-01-06T11:31:12;5.10;99.90
27200;DHT22;14714;48.106;11.546;2024-01-06T11:33:46;5.00;99.90
27200;DHT22;14714;48.106;11.546;2024-01-06T11:36:16;5.10;99.90
27200;DHT22;14714;48.106;11.546;2024-01-06T11:38:43;5.10;99.90
27200;DHT22;14714;48.106;11.546;2024-01-06T11:41:53;5.10;99.90
27200;DHT22;14714;48.106;11.546;2024-01-06T11:44:23;5.10;99.90
27200;DHT22;14714;48.106;11.546;2024-01-06T11:46:51;5.00;99.90
27200;DHT22;14714;48.106;11.546;2024-01-06T11:49:20;5.00;99.90
27200;DHT22;14714;48.106;11.546;2024-01-06T11:51:48;5.00;99.90
27200;DHT22;14714;48.106;11.546;2024-01-06T11:54:15;5.00;99.90
27200;DHT22;14714;48.106;11.546;2024-01-06T11:56:42;5.00;99.90
27200;DHT22;14714;48.106;11.546;2024-01-06T11:59:09;5.00;99.90
27200;DHT22;14714;48.106;11.546;2024-01-06T12:01:37;5.00;99.90
27200;DHT22;14714;48.106;11.546;2024-01-06T12:04:05;5.00;99.90
27200;DHT22;14714;48.106;11.546;2024-01-06T12:06:33;5.00;99.90
27200;DHT22;14714;48.106;11.546;2024-01-06T12:09:08;5.10;99.90
27200;DHT22;14714;48.106;11.546;2024-01-06T12:11:35;5.10;99.90
27200;DHT22;14714;48.106;11.546;2024-01-06T12:14:03;5.10;99.90
27200;DHT22;14714;48.106;11.546;2024-01-06T12:16:30;5.10;99.90
27200;DHT22;14714;48.106;11.546;2024-01-06T12:18:59;5.10;99.90
27200;DHT22;14714;48.106;11.546;2024-01-06T12:21:27;5.10;99.90
27200;DHT22;14714;48.106;11.546;2024-01-06T12:24:11;5.10;99.90
27200;DHT22;14714;48.106;11.546;2024-01-06T12:26:41;5.10;99.90
27200;DHT22;14714;48.106;11.546;2024-01-06T12:29:09;5.10;99.90
27200;DHT22;14714;48.106;11.546;2024-01-06T12:31:36;5.10;99.90
27200;DHT22;14714;48.106;11.546;2024-01-06T12:34:06;5.10;99.90
27200;DHT22;14714;48.106;11.546;2024-01-06T12:36:38;5.10;99.90
27200;DHT22;14714;48.106;11.546;2024-01-06T12:39:10;5.20;99.90
27200;DHT22;14714;48.106;11.546;2024-01-06T12:41:37;5.10;99.90
27200;DHT22;14714;48.106;11.546;2024-01-06T12:44:04;5.00;99.90
27200;DHT22;14714;48.106;11.546;2024-01-06T12:46:31;5.00;99.90
27200;DHT22;14714;48.106;11.546;2024-01-06T12:48:58;5.00;99.90
27200;DHT22;14714;48.106;11.546;2024-01-06T12:51:25;4.90;99.90
27200;DHT22;14714;48.106;11.546;2024-01-06T12:53:52;4.90;99.90
27200;DHT22;14714;48.106;11.546;2024-01-06T12:56:19;4.80;99.90
27200;DHT22;14714;48.106;11.546;2024-01-06T12:58:46;4.70;99.90
27200;DHT22;14714;48.106;11.546;2024-01-06T13:01:13;4.70;99.90
27200;DHT22;14714;48.106;11.546;2024-01-06T13:03:40;4.70;99.90
27200;DHT22;14714;48.106;11.546;2024-01-06T13:06:07;4.70;99.90
27200;DHT22;14714;48.106;11.546;2024-01-06T13:08:34;4.60;99.90
27200;DHT22;14714;48.106;11.546;2024-01-06T13:11:01;4.60;99.90
27200;DHT22;14714;48.106;11.546;2024-01-06T13:13:27;4.60;99.90
27200;DHT22;14714;48.106;11.546;2024-01-06T13:15:54;4.60;99.90
27200;DHT22;14714;48.106;11.546;2024-01-06T13:18:21;4.60;99.90
27200;DHT22;14714;48.106;11.546;2024-01-06T13:20:48;4.50;99.90
27200;DHT22;14714;48.106;11.546;2024-01-06T13:23:16;4.50;99.90
27200;DHT22;14714;48.106;11.546;2024-01-06T13:25:44;4.40;99.90
27200;DHT22;14714;48.106;11.546;2024-01-06T13:28:11;4.50;99.90
27200;DHT22;14714;48.106;11.546;2024-01-06T13:30:38;4.40;99.90
27200;DHT22;14714;48.106;11.546;2024-01-06T13:33:08;4.40;99.90
27200;DHT22;14714;48.106;11.546;2024-01-06T13:35:38;4.40;99.90
27200;DHT22;14714;48.106;11.546;2024-01-06T13:38:05;4.30;99.90
27200;DHT22;14714;48.106;11.546;2024-01-06T13:40:32;4.30;99.90
27200;DHT22;14714;48.106;11.546;2024-01-06T13:42:59;4.30;99.90
27200;DHT22;14714;48.106;11.546;2024-01-06T13:45:26;4.20;99.90
27200;DHT22;14714;48.106;11.546;2024-01-06T13:47:53;4.20;99.90
27200;DHT22;14714;48.106;11.546;2024-01-06T13:50:20;4.20;99.90
27200;DHT22;14714;48.106;11.546;2024-01-06T13:52:47;4.20;99.90
27200;DHT22;14714;48.106;11.546;2024-01-06T13:55:15;4.20;99.90
27200;DHT22;14714;48.106;11.546;2024-01-06T13:57:42;4.10;99.90
27200;DHT22;14714;48.106;11.546;2024-01-06T14:00:09;4.10;99.90
27200;DHT22;14714;48.106;11.546;2024-01-06T14:02:38;4.10;99.90
27200;DHT22;14714;48.106;11.546;2024-01-06T14:05:05;4.10;99.90
27200;DHT22;14714;48.106;11.546;2024-01-06T14:07:38;4.00;99.90
27200;DHT22;14714;48.106;11.546;2024-01-06T14:10:12;4.00;99.90
27200;DHT22;14714;48.106;11.546;2024-01-06T14:12:42;4.00;99.90
27200;DHT22;14714;48.106;11.546;2024-01-06T14:15:09;4.00;99.90
27200;DHT22;14714;48.106;11.546;2024-01-06T14:17:36;3.90;99.90
27200;DHT22;14714;48.106;11.546;2024-01-06T14:20:04;3.90;99.90
27200;DHT22;14714;48.106;11.546;2024-01-06T14:22:32;3.90;99.90
27200;DHT22;14714;48.106;11.546;2024-01-06T14:24:59;3.90;99.90
27200;DHT22;14714;48.106;11.546;2024-01-06T14:27:31;3.80;99.90
27200;DHT22;14714;48.106;11.546;2024-01-06T14:29:58;3.80;99.90
27200;DHT22;14714;48.106;11.546;2024-01-06T14:32:25;3.90;99.90
27200;DHT22;14714;48.106;11.546;2024-01-06T14:34:52;3.80;99.90
27200;DHT22;14714;48.106;11.546;2024-01-06T14:37:19;3.80;99.90
27200;DHT22;14714;48.106;11.546;2024-01-06T14:39:47;3.80;99.90
27200;DHT22;14714;48.106;11.546;2024-01-06T14:42:14;3.80;99.90
27200;DHT22;14714;48.106;11.546;2024-01-06T14:44:43;3.70;99.90
27200;DHT22;14714;48.106;11.546;2024-01-06T14:47:10;3.70;99.90
27200;DHT22;14714;48.106;11.546;2024-01-06T14:49:37;3.70;99.90
27200;DHT22;14714;48.106;11.546;2024-01-06T14:52:04;3.70;99.90
27200;DHT22;14714;48.106;11.546;2024-01-06T14:54:31;3.60;99.90
27200;DHT22;14714;48.106;11.546;2024-01-06T14:57:00;3.60;99.90
27200;DHT22;14714;48.106;11.546;2024-01-06T14:59:27;3.60;99.90
27200;DHT22;14714;48.106;11.546;2024-01-06T15:01:53;3.60;99.90
27200;DHT22;14714;48.106;11.546;2024-01-06T15:04:20;3.60;99.90
27200;DHT22;14714;48.106;11.546;2024-01-06T15:06:47;3.50;99.90
27200;DHT22;14714;48.106;11.546;2024-01-06T15:09:17;3.50;99.90
27200;DHT22;14714;48.106;11.546;2024-01-06T15:11:44;3.50;99.90
27200;DHT22;14714;48.106;11.546;2024-01-06T15:14:10;3.50;99.90
27200;DHT22;14714;48.106;11.546;2024-01-06T15:16:37;3.40;99.90
27200;DHT22;14714;48.106;11.546;2024-01-06T15:19:04;3.40;99.90
27200;DHT22;14714;48.106;11.546;2024-01-06T15:21:35;3.40;99.90
27200;DHT22;14714;48.106;11.546;2024-01-06T15:24:04;3.30;99.90
27200;DHT22;14714;48.106;11.546;2024-01-06T15:26:31;3.30;99.90
27200;DHT22;14714;48.106;11.546;2024-01-06T15:28:58;3.30;99.90
27200;DHT22;14714;48.106;11.546;2024-01-06T15:31:29;3.20;99.90
27200;DHT22;14714;48.106;11.546;2024-01-06T15:33:56;3.20;99.90
27200;DHT22;14714;48.106;11.546;2024-01-06T15:36:23;3.20;99.90
27200;DHT22;14714;48.106;11.546;2024-01-06T15:38:50;3.10;99.90